createdAt,value
2022-10-30T00:16:29.135Z,100914.63
2022-10-30T00:29:47.934Z,100896.53
2022-10-30T02:17:17.432Z,100858.66
2022-10-30T02:26:21.712Z,100861.50
2022-10-30T02:35:26.064Z,100855.31
2022-10-30T03:19:15.595Z,100844.78
2022-10-30T03:23:23.279Z,100849.59
2022-10-30T03:26:50.469Z,100854.66
2022-10-30T03:34:15.253Z,100852.03
2022-10-30T03:38:37.590Z,100851.16
2022-10-30T03:59:35.651Z,100840.03
2022-10-30T04:03:43.579Z,100845.59
2022-10-30T05:41:32.590Z,100849.06
2022-10-30T09:07:54.534Z,100903.81
2022-10-30T09:34:57.551Z,100902.69
2022-10-30T09:57:31.505Z,100883.69
2022-10-30T10:09:17.392Z,100886.84
2022-10-30T10:37:21.218Z,100867.13
2022-10-30T10:41:27.239Z,100868.88
2022-10-30T10:45:36.747Z,100860.59
2022-10-30T10:57:21.002Z,100858.28
2022-10-30T11:05:57.488Z,100865.09
2022-10-30T11:53:46.626Z,100828.59
2022-10-30T13:29:41.706Z,100800.19
2022-10-30T14:23:39.626Z,100798.06
2022-10-30T14:26:12.309Z,100802.69
2022-10-30T14:28:45.041Z,100806.78
2022-10-30T14:31:16.905Z,100813.81
2022-10-30T14:33:45.138Z,100808.16
2022-10-30T14:36:34.237Z,100804.75
2022-10-30T14:39:26.614Z,100800.16
2022-10-30T14:42:12.335Z,100801.75
2022-10-30T14:45:09.862Z,100806.22
2022-10-30T14:47:46.909Z,100797.16
2022-10-30T14:50:27.532Z,100804.09
2022-10-30T14:53:15.268Z,100790.13
2022-10-30T14:56:12.063Z,100797.47
2022-10-30T14:58:43.727Z,100787.47
2022-10-30T15:01:36.249Z,100779.81
2022-10-30T15:04:23.088Z,100776.59
2022-10-30T15:07:04.309Z,100763.44
2022-10-30T15:09:55.325Z,100768.03
2022-10-30T15:12:44.639Z,100771.25
2022-10-30T15:15:17.492Z,100775.94
2022-10-30T15:17:53.922Z,100778.22
2022-10-30T15:20:28.808Z,100768.50
2022-10-30T15:23:04.241Z,100774.78
2022-10-30T15:25:46.841Z,100775.87
2022-10-30T15:28:21.599Z,100774.12
2022-10-30T15:31:13.807Z,100773.69
2022-10-30T15:33:42.709Z,100760.91
2022-10-30T15:36:23.907Z,100772.50
2022-10-30T15:39:12.566Z,100784.22
2022-10-30T15:42:02.072Z,100779.94
2022-10-30T15:44:39.602Z,100780.03
2022-10-30T15:47:19.499Z,100778.56
2022-10-30T15:49:54.518Z,100789.91
2022-10-30T15:52:31.907Z,100792.94
2022-10-30T15:55:02.458Z,100789.37
2022-10-30T15:58:02.235Z,100787.69
2022-10-30T16:00:36.456Z,100781.16
2022-10-30T16:03:22.918Z,100785.78
2022-10-30T16:05:52.185Z,100782.06
2022-10-30T16:08:23.239Z,100800.03
2022-10-30T16:10:55.368Z,100796.22
2022-10-30T16:13:35.001Z,100799.87
2022-10-30T16:16:06.531Z,100794.78
2022-10-30T16:18:36.135Z,100797.44
2022-10-30T16:21:10.728Z,100800.03
2022-10-30T16:23:55.428Z,100794.91
2022-10-30T16:26:25.528Z,100787.72
2022-10-30T16:28:54.778Z,100782.97
2022-10-30T16:31:24.838Z,100777.34
2022-10-30T16:33:53.625Z,100795.00
2022-10-30T16:36:26.762Z,100788.34
2022-10-30T16:38:56.369Z,100794.97
2022-10-30T16:41:27.226Z,100794.03
2022-10-30T16:44:22.636Z,100805.50
2022-10-30T16:47:04.040Z,100801.88
2022-10-30T16:49:47.057Z,100808.72
2022-10-30T16:52:22.098Z,100804.38
2022-10-30T16:55:02.217Z,100800.25
2022-10-30T16:57:36.550Z,100802.06
2022-10-30T17:00:06.965Z,100801.62
2022-10-30T17:02:43.651Z,100798.41
2022-10-30T17:05:21.205Z,100800.78
2022-10-30T17:08:09.718Z,100803.47
2022-10-30T17:10:44.840Z,100803.66
2022-10-30T17:13:38.927Z,100805.59
2022-10-30T17:16:24.845Z,100801.38
2022-10-30T17:19:00.502Z,100804.75
2022-10-30T17:21:41.240Z,100809.87
2022-10-30T17:24:21.417Z,100812.50
2022-10-30T17:27:00.280Z,100809.97
2022-10-30T17:29:37.472Z,100810.09
2022-10-30T17:32:06.974Z,100812.94
2022-10-30T17:34:38.919Z,100821.03
2022-10-30T17:37:07.336Z,100815.91
2022-10-30T17:39:37.275Z,100814.31
2022-10-30T17:42:25.465Z,100809.25
2022-10-30T17:45:13.240Z,100816.59
2022-10-30T17:47:42.590Z,100815.72
2022-10-30T17:50:11.029Z,100808.62
2022-10-30T17:52:45.331Z,100822.31
2022-10-30T17:55:24.756Z,100815.25
2022-10-30T17:57:53.628Z,100816.84
2022-10-30T18:00:29.995Z,100821.22
2022-10-30T18:03:01.070Z,100823.41
2022-10-30T18:05:43.856Z,100832.91
2022-10-30T18:08:33.159Z,100832.84
2022-10-30T18:11:02.018Z,100835.88
2022-10-30T18:13:31.672Z,100835.56
2022-10-30T18:16:06.922Z,100827.06
2022-10-30T18:18:54.781Z,100833.50
2022-10-30T18:21:27.753Z,100825.25
2022-10-30T18:24:00.906Z,100825.31
2022-10-30T18:26:34.127Z,100820.66
2022-10-30T18:29:06.495Z,100821.78
2022-10-30T18:31:37.338Z,100813.13
2022-10-30T18:34:16.695Z,100818.78
2022-10-30T18:36:44.918Z,100818.75
2022-10-30T18:39:14.416Z,100814.16
2022-10-30T18:41:45.945Z,100811.03
2022-10-30T18:44:17.987Z,100814.41
2022-10-30T18:47:11.495Z,100814.34
2022-10-30T18:49:44.356Z,100824.28
2022-10-30T18:52:32.386Z,100822.56
2022-10-30T18:55:35.908Z,100816.66
2022-10-30T18:58:07.056Z,100812.63
2022-10-30T19:01:09.883Z,100814.50
2022-10-30T19:03:29.424Z,100812.97
2022-10-30T19:06:00.129Z,100816.06
2022-10-30T19:08:28.429Z,100822.88
2022-10-30T19:10:58.834Z,100824.53
2022-10-30T19:13:28.257Z,100826.81
2022-10-30T19:16:00.458Z,100828.56
2022-10-30T19:18:32.217Z,100823.78
2022-10-30T19:21:05.138Z,100836.16
2022-10-30T19:23:37.384Z,100824.16
2022-10-30T19:26:06.165Z,100832.31
2022-10-30T19:28:58.109Z,100826.66
2022-10-30T19:31:27.958Z,100824.22
2022-10-30T19:33:57.745Z,100829.22
2022-10-30T19:36:45.236Z,100821.53
2022-10-30T19:39:21.438Z,100814.00
2022-10-30T19:41:51.996Z,100816.16
2022-10-30T19:44:21.758Z,100819.03
2022-10-30T19:47:06.199Z,100820.56
2022-10-30T19:49:38.810Z,100822.06
2022-10-30T19:52:07.246Z,100815.56
2022-10-30T19:54:44.804Z,100824.00
2022-10-30T19:57:15.192Z,100821.22
2022-10-30T19:59:47.912Z,100818.59
2022-10-30T20:02:16.168Z,100819.78
2022-10-30T20:04:50.248Z,100821.62
2022-10-30T20:07:18.981Z,100822.00
2022-10-30T20:09:51.357Z,100820.03
2022-10-30T20:12:20.080Z,100828.28
2022-10-30T20:14:57.127Z,100820.16
2022-10-30T20:17:27.776Z,100821.16
2022-10-30T20:19:58.264Z,100829.34
2022-10-30T20:22:28.498Z,100826.28
2022-10-30T20:24:57.045Z,100829.56
2022-10-30T20:27:27.071Z,100828.06
2022-10-30T20:29:59.170Z,100831.06
2022-10-30T20:32:28.634Z,100824.28
2022-10-30T20:34:59.691Z,100823.37
2022-10-30T20:37:30.029Z,100825.66
2022-10-30T20:40:01.866Z,100822.94
2022-10-30T20:43:03.123Z,100819.22
2022-10-30T20:45:35.467Z,100829.50
2022-10-30T20:48:25.889Z,100832.38
2022-10-30T20:50:55.773Z,100830.13
2022-10-30T20:53:25.832Z,100830.75
2022-10-30T20:55:54.467Z,100823.66
2022-10-30T20:58:23.542Z,100819.69
2022-10-30T21:00:55.583Z,100815.31
2022-10-30T21:03:25.028Z,100826.13
2022-10-30T21:05:58.577Z,100816.31
2022-10-30T21:08:28.892Z,100821.34
2022-10-30T21:11:17.412Z,100818.69
2022-10-30T21:13:47.956Z,100816.13
2022-10-30T21:16:17.276Z,100819.66
2022-10-30T21:19:00.184Z,100816.25
2022-10-30T21:21:33.845Z,100828.97
2022-10-30T21:24:09.570Z,100821.03
2022-10-30T21:26:40.123Z,100824.47
2022-10-30T21:29:11.196Z,100821.81
2022-10-30T21:31:42.331Z,100824.13
2022-10-30T21:34:23.262Z,100827.44
2022-10-30T21:36:58.527Z,100819.13
2022-10-30T21:39:29.402Z,100826.63
2022-10-30T21:41:59.996Z,100820.69
2022-10-30T21:44:33.283Z,100822.06
2022-10-30T21:47:05.100Z,100824.06
2022-10-30T21:49:37.887Z,100820.72
2022-10-30T21:52:12.258Z,100820.09
2022-10-30T21:55:04.235Z,100819.75
2022-10-30T21:57:33.787Z,100818.78
2022-10-30T22:00:06.155Z,100816.41
2022-10-30T22:02:38.219Z,100808.84
2022-10-30T22:05:06.866Z,100812.84
2022-10-30T22:07:35.216Z,100811.31
2022-10-30T22:10:05.652Z,100813.16
2022-10-30T22:12:39.935Z,100805.25
2022-10-30T22:15:11.859Z,100802.72
2022-10-30T22:17:42.021Z,100811.31
2022-10-30T22:20:17.272Z,100812.84
2022-10-30T22:22:48.008Z,100814.13
2022-10-30T22:25:39.295Z,100812.84
2022-10-30T22:28:09.152Z,100814.28
2022-10-30T22:30:39.995Z,100809.87
2022-10-30T22:33:13.934Z,100815.47
2022-10-30T22:35:48.451Z,100815.94
2022-10-30T22:38:20.923Z,100819.22
2022-10-30T22:40:52.728Z,100828.62
2022-10-30T22:43:21.517Z,100819.91
2022-10-30T22:45:56.197Z,100825.94
2022-10-30T22:48:27.343Z,100816.63
2022-10-30T22:51:01.152Z,100813.25
2022-10-30T22:53:36.020Z,100814.38
2022-10-30T22:56:28.591Z,100815.56
2022-10-30T22:59:19.396Z,100815.19
2022-10-30T23:02:08.626Z,100815.75
2022-10-30T23:04:49.459Z,100831.25
2022-10-30T23:07:26.518Z,100832.63
2022-10-30T23:09:57.162Z,100823.91
2022-10-30T23:12:34.634Z,100822.69
2022-10-30T23:15:46.692Z,100835.38
2022-10-30T23:18:18.239Z,100829.25
2022-10-30T23:20:52.748Z,100828.03
2022-10-30T23:23:25.167Z,100821.22
2022-10-30T23:26:23.152Z,100815.22
2022-10-30T23:28:56.817Z,100809.91
2022-10-30T23:31:39.550Z,100821.34
2022-10-30T23:34:17.630Z,100825.91
2022-10-30T23:37:10.796Z,100825.09
2022-10-30T23:39:40.300Z,100802.59
2022-10-30T23:42:12.621Z,100799.72
2022-10-30T23:44:43.595Z,100801.44
2022-10-30T23:47:35.474Z,100809.84
2022-10-30T23:50:05.060Z,100808.34
2022-10-30T23:52:37.997Z,100814.56
2022-10-30T23:55:29.947Z,100798.69
2022-10-30T23:58:03.606Z,100798.25
